createdAt,value
2019-02-02T00:00:39.113Z,979.88
2019-02-02T00:01:39.123Z,979.84
2019-02-02T00:02:39.091Z,979.87
2019-02-02T00:03:39.157Z,979.87
2019-02-02T00:04:39.103Z,979.85
2019-02-02T00:05:39.091Z,979.84
2019-02-02T00:06:39.051Z,979.86
2019-02-02T00:07:39.032Z,979.78
2019-02-02T00:08:39.066Z,979.85
2019-02-02T00:09:39.016Z,979.80
2019-02-02T00:10:39.007Z,979.82
2019-02-02T00:11:39.034Z,979.81
2019-02-02T00:12:38.985Z,979.82
2019-02-02T00:13:38.967Z,979.89
2019-02-02T00:14:38.956Z,979.93
2019-02-02T00:15:38.974Z,979.98
2019-02-02T00:16:38.982Z,979.97
2019-02-02T00:17:38.923Z,980.02
2019-02-02T00:18:38.955Z,980.08
2019-02-02T00:19:38.904Z,980.10
2019-02-02T00:20:38.909Z,980.06
2019-02-02T00:21:38.881Z,980.10
2019-02-02T00:22:38.876Z,980.11
2019-02-02T00:23:38.884Z,980.09
2019-02-02T00:24:38.850Z,979.99
2019-02-02T00:25:38.846Z,980.00
2019-02-02T00:26:38.825Z,979.95
2019-02-02T00:27:41.442Z,980.00
2019-02-02T00:28:38.808Z,980.04
2019-02-02T00:29:38.797Z,979.92
2019-02-02T00:30:38.786Z,979.94
2019-02-02T00:31:38.774Z,979.94
2019-02-02T00:32:38.795Z,979.93
2019-02-02T00:33:38.762Z,980.02
2019-02-02T00:34:38.741Z,980.01
2019-02-02T00:35:38.728Z,980.11
2019-02-02T00:36:38.729Z,980.08
2019-02-02T00:37:38.739Z,980.14
2019-02-02T00:38:38.706Z,980.12
2019-02-02T00:39:38.693Z,980.13
2019-02-02T00:40:38.678Z,980.12
2019-02-02T00:41:38.669Z,980.11
2019-02-02T00:42:38.687Z,980.17
2019-02-02T00:43:38.754Z,980.08
2019-02-02T00:44:38.637Z,980.06
2019-02-02T00:45:38.628Z,980.07
2019-02-02T00:46:38.606Z,980.10
2019-02-02T00:47:38.602Z,979.96
2019-02-02T00:48:38.615Z,979.94
2019-02-02T00:49:38.575Z,979.87
2019-02-02T00:50:38.630Z,979.82
2019-02-02T00:51:38.587Z,979.77
2019-02-02T00:52:38.538Z,979.73
2019-02-02T00:53:38.558Z,979.68
2019-02-02T00:54:38.522Z,979.61
2019-02-02T00:55:38.506Z,979.62
2019-02-02T00:56:38.496Z,979.56
2019-02-02T00:57:38.487Z,979.58
2019-02-02T00:58:38.478Z,979.56
2019-02-02T00:59:38.495Z,979.58
2019-02-02T01:00:38.452Z,979.71
2019-02-02T01:01:38.440Z,979.71
2019-02-02T01:02:38.431Z,979.84
2019-02-02T01:03:38.420Z,979.89
2019-02-02T01:04:38.431Z,979.96
2019-02-02T01:05:38.395Z,980.02
2019-02-02T01:06:38.385Z,979.99
2019-02-02T01:07:38.381Z,980.11
2019-02-02T01:08:38.382Z,980.06
2019-02-02T01:09:38.385Z,980.10
2019-02-02T01:10:38.347Z,980.00
2019-02-02T01:11:38.334Z,980.03
2019-02-02T01:12:38.321Z,980.01
2019-02-02T01:13:38.322Z,979.96
2019-02-02T01:14:38.322Z,980.03
2019-02-02T01:15:38.316Z,979.99
2019-02-02T01:16:38.291Z,979.95
2019-02-02T01:17:38.268Z,980.05
2019-02-02T01:18:38.257Z,980.00
2019-02-02T01:19:38.250Z,979.92
2019-02-02T01:20:38.270Z,979.95
2019-02-02T01:21:38.229Z,979.92
2019-02-02T01:22:38.215Z,979.84
2019-02-02T01:23:38.237Z,979.85
2019-02-02T01:24:38.190Z,979.93
2019-02-02T01:25:38.222Z,979.92
2019-02-02T01:26:38.168Z,979.93
2019-02-02T01:27:38.163Z,980.04
2019-02-02T01:28:38.187Z,980.02
2019-02-02T01:29:38.176Z,980.04
2019-02-02T01:30:38.134Z,980.04
2019-02-02T01:31:38.115Z,980.00
2019-02-02T01:32:38.101Z,979.88
2019-02-02T01:33:38.126Z,979.85
2019-02-02T01:34:38.091Z,979.87
2019-02-02T01:35:38.073Z,979.87
2019-02-02T01:36:38.081Z,979.78
2019-02-02T01:37:38.046Z,979.78
2019-02-02T01:38:38.050Z,979.68
2019-02-02T01:39:38.031Z,979.64
2019-02-02T01:40:38.022Z,979.60
2019-02-02T01:41:38.028Z,979.54
2019-02-02T01:42:38.022Z,979.50
2019-02-02T01:43:37.985Z,979.54
2019-02-02T01:44:37.972Z,979.53
2019-02-02T01:45:37.966Z,979.50
2019-02-02T01:46:37.969Z,979.60
2019-02-02T01:47:37.963Z,979.46
2019-02-02T01:48:37.930Z,979.42
2019-02-02T01:49:37.918Z,979.48
2019-02-02T01:50:37.906Z,979.40
2019-02-02T01:51:37.898Z,979.37
2019-02-02T01:52:37.914Z,979.38
2019-02-02T01:53:37.872Z,979.40
2019-02-02T01:54:38.491Z,979.41
2019-02-02T01:55:37.849Z,979.50
2019-02-02T01:56:37.838Z,979.46
2019-02-02T01:57:37.829Z,979.46
2019-02-02T01:58:37.844Z,979.38
2019-02-02T01:59:37.815Z,979.44
2019-02-02T02:00:37.793Z,979.55
2019-02-02T02:01:37.788Z,979.58
2019-02-02T02:02:37.771Z,979.66
2019-02-02T02:03:37.864Z,979.73
2019-02-02T02:04:37.756Z,979.61
2019-02-02T02:05:37.758Z,979.61
2019-02-02T02:06:37.727Z,979.55
2019-02-02T02:07:37.719Z,979.55
2019-02-02T02:08:37.744Z,979.54
2019-02-02T02:09:37.729Z,979.50
2019-02-02T02:10:37.696Z,979.55
2019-02-02T02:11:37.684Z,979.57
2019-02-02T02:12:37.673Z,979.54
2019-02-02T02:13:37.653Z,979.53
2019-02-02T02:14:37.670Z,979.52
2019-02-02T02:15:37.629Z,979.54
2019-02-02T02:16:37.626Z,979.58
2019-02-02T02:17:37.614Z,979.56
2019-02-02T02:18:37.597Z,979.63
2019-02-02T02:19:37.590Z,979.59
2019-02-02T02:20:37.617Z,979.59
2019-02-02T02:21:37.569Z,979.57
2019-02-02T02:22:41.275Z,979.61
2019-02-02T02:23:37.550Z,979.63
2019-02-02T02:24:37.548Z,979.67
2019-02-02T02:25:37.569Z,979.71
2019-02-02T02:26:37.511Z,979.69
2019-02-02T02:27:37.517Z,979.72
2019-02-02T02:28:37.512Z,979.81
2019-02-02T02:29:37.525Z,979.89
2019-02-02T02:30:37.472Z,979.91
2019-02-02T02:31:37.458Z,979.98
2019-02-02T02:32:37.448Z,979.94
2019-02-02T02:33:37.480Z,979.98
2019-02-02T02:34:37.468Z,979.97
2019-02-02T02:35:37.414Z,979.97
2019-02-02T02:36:37.405Z,979.98
2019-02-02T02:37:37.395Z,980.06
2019-02-02T02:38:37.405Z,980.04
2019-02-02T02:39:37.412Z,980.07
2019-02-02T02:40:37.364Z,980.05
2019-02-02T02:41:37.380Z,980.07
2019-02-02T02:42:37.688Z,980.03
2019-02-02T02:43:37.330Z,979.97
2019-02-02T02:44:37.324Z,979.96
2019-02-02T02:45:37.310Z,979.97
2019-02-02T02:46:37.293Z,979.94
2019-02-02T02:47:37.347Z,979.92
2019-02-02T02:48:37.276Z,979.90
2019-02-02T02:49:37.266Z,979.93
2019-02-02T02:50:37.269Z,979.90
2019-02-02T02:51:37.400Z,979.86
2019-02-02T02:52:37.254Z,979.90
2019-02-02T02:53:37.246Z,979.90
2019-02-02T02:54:37.207Z,979.84
2019-02-02T02:55:37.244Z,979.89
2019-02-02T02:56:37.196Z,979.86
2019-02-02T02:57:37.180Z,979.88
2019-02-02T02:58:41.470Z,979.83
2019-02-02T02:59:37.161Z,979.83
2019-02-02T03:00:37.146Z,979.78
2019-02-02T03:01:37.129Z,979.75
2019-02-02T03:02:37.140Z,979.76
2019-02-02T03:03:37.142Z,979.79
2019-02-02T03:04:37.122Z,979.77
2019-02-02T03:05:37.093Z,979.81
2019-02-02T03:06:37.078Z,979.84
2019-02-02T03:07:37.073Z,979.86
2019-02-02T03:08:37.098Z,979.90
2019-02-02T03:09:37.042Z,979.87
2019-02-02T03:10:37.035Z,979.79
2019-02-02T03:11:37.049Z,979.78
2019-02-02T03:12:37.010Z,979.80
2019-02-02T03:13:37.001Z,979.75
2019-02-02T03:14:37.038Z,979.77
2019-02-02T03:15:36.985Z,979.68
2019-02-02T03:16:36.981Z,979.71
2019-02-02T03:17:36.952Z,979.70
2019-02-02T03:18:36.941Z,979.76
2019-02-02T03:19:36.936Z,979.74
2019-02-02T03:20:36.963Z,979.70
2019-02-02T03:21:36.908Z,979.73
2019-02-02T03:22:36.900Z,979.73
2019-02-02T03:23:36.900Z,979.73
2019-02-02T03:24:36.877Z,979.77
2019-02-02T03:25:36.894Z,979.76
2019-02-02T03:26:36.863Z,979.73
2019-02-02T03:27:36.842Z,979.85
2019-02-02T03:28:36.844Z,979.82
2019-02-02T03:29:36.827Z,979.86
2019-02-02T03:30:36.824Z,979.81
2019-02-02T03:31:36.830Z,979.83
2019-02-02T03:32:36.910Z,979.79
2019-02-02T03:33:36.790Z,979.86
2019-02-02T03:34:36.778Z,979.79
2019-02-02T03:35:36.777Z,979.80
2019-02-02T03:36:36.773Z,979.76
2019-02-02T03:37:36.736Z,979.80
2019-02-02T03:38:36.737Z,979.80
2019-02-02T03:39:36.727Z,979.75
2019-02-02T03:40:36.707Z,979.81
2019-02-02T03:41:36.701Z,979.75
2019-02-02T03:42:36.716Z,979.74
2019-02-02T03:43:36.673Z,979.85
2019-02-02T03:44:36.662Z,979.82
2019-02-02T03:45:40.341Z,979.83
2019-02-02T03:46:36.641Z,979.76
2019-02-02T03:47:36.650Z,979.76
2019-02-02T03:48:36.618Z,979.75
2019-02-02T03:49:36.616Z,979.69
2019-02-02T03:50:36.593Z,979.71
2019-02-02T03:51:36.584Z,979.68
2019-02-02T03:52:36.613Z,979.77
2019-02-02T03:53:36.567Z,979.73
2019-02-02T03:54:36.560Z,979.72
2019-02-02T03:55:36.543Z,979.78
2019-02-02T03:56:36.559Z,979.74
2019-02-02T03:57:36.524Z,979.77
2019-02-02T03:58:36.535Z,979.74
2019-02-02T03:59:36.500Z,979.80
2019-02-02T04:00:36.497Z,979.77
2019-02-02T04:01:36.477Z,979.76
2019-02-02T04:02:36.466Z,979.85
2019-02-02T04:03:36.464Z,979.82
2019-02-02T04:04:36.480Z,979.72
2019-02-02T04:05:36.442Z,979.80
2019-02-02T04:06:36.425Z,979.78
2019-02-02T04:07:36.414Z,979.87
2019-02-02T04:08:36.406Z,979.95
2019-02-02T04:09:36.418Z,979.93
2019-02-02T04:10:36.387Z,980.01
2019-02-02T04:11:36.376Z,980.05
2019-02-02T04:12:36.362Z,980.02
2019-02-02T04:13:36.361Z,980.02
2019-02-02T04:14:36.375Z,979.90
2019-02-02T04:15:36.330Z,979.84
2019-02-02T04:16:36.358Z,979.81
2019-02-02T04:17:36.317Z,979.78
2019-02-02T04:18:36.304Z,979.80
2019-02-02T04:19:36.307Z,979.78
2019-02-02T04:20:36.303Z,979.79
2019-02-02T04:21:36.261Z,979.73
2019-02-02T04:22:36.253Z,979.77
2019-02-02T04:23:36.243Z,979.76
2019-02-02T04:24:36.234Z,979.74
2019-02-02T04:25:36.248Z,979.78
2019-02-02T04:26:36.222Z,979.73
2019-02-02T04:27:36.198Z,979.84
2019-02-02T04:28:36.201Z,979.88
2019-02-02T04:29:36.204Z,979.91
2019-02-02T04:30:36.203Z,979.90
2019-02-02T04:31:36.152Z,979.90
2019-02-02T04:32:36.220Z,979.81
2019-02-02T04:33:36.286Z,979.81
2019-02-02T04:34:36.126Z,979.86
2019-02-02T04:35:36.116Z,979.82
2019-02-02T04:36:36.105Z,979.91
2019-02-02T04:37:38.137Z,979.95
2019-02-02T04:38:36.097Z,980.03
2019-02-02T04:39:36.067Z,980.12
2019-02-02T04:40:36.065Z,980.15
2019-02-02T04:41:36.061Z,980.19
2019-02-02T04:42:36.070Z,980.24
2019-02-02T04:43:36.030Z,980.18
2019-02-02T04:44:36.017Z,980.16
2019-02-02T04:45:36.013Z,980.23
2019-02-02T04:46:36.001Z,980.22
2019-02-02T04:47:36.027Z,980.28
2019-02-02T04:48:35.994Z,980.22
2019-02-02T04:49:35.961Z,980.17
2019-02-02T04:50:35.951Z,980.20
2019-02-02T04:51:35.946Z,980.09
2019-02-02T04:52:35.960Z,980.10
2019-02-02T04:53:35.924Z,980.14
2019-02-02T04:54:35.912Z,980.10
2019-02-02T04:55:35.929Z,980.07
2019-02-02T04:56:35.892Z,980.05
2019-02-02T04:57:35.892Z,980.07
2019-02-02T04:58:35.897Z,980.11
2019-02-02T04:59:35.862Z,980.17
2019-02-02T05:00:35.853Z,980.16
2019-02-02T05:01:35.847Z,980.22
2019-02-02T05:02:35.849Z,980.25
2019-02-02T05:03:35.838Z,980.23
2019-02-02T05:04:35.815Z,980.30
2019-02-02T05:05:35.794Z,980.32
2019-02-02T05:06:35.813Z,980.34
2019-02-02T05:07:35.771Z,980.25
2019-02-02T05:08:35.778Z,980.25
2019-02-02T05:09:35.785Z,980.21
2019-02-02T05:10:35.738Z,980.24
2019-02-02T05:11:35.733Z,980.21
2019-02-02T05:12:35.761Z,980.17
2019-02-02T05:13:35.727Z,980.13
2019-02-02T05:14:35.724Z,980.13
2019-02-02T05:15:35.729Z,980.13
2019-02-02T05:16:35.676Z,980.17
2019-02-02T05:17:35.674Z,980.10
2019-02-02T05:18:35.659Z,980.15
2019-02-02T05:19:35.677Z,980.13
2019-02-02T05:20:35.638Z,980.08
2019-02-02T05:21:35.623Z,980.08
2019-02-02T05:22:35.614Z,980.10
2019-02-02T05:23:35.608Z,980.12
2019-02-02T05:24:35.624Z,980.13
2019-02-02T05:25:35.578Z,980.18
2019-02-02T05:26:35.571Z,980.15
2019-02-02T05:27:35.587Z,980.18
2019-02-02T05:28:35.585Z,980.22
2019-02-02T05:29:41.514Z,980.21
2019-02-02T05:30:36.532Z,980.24
2019-02-02T05:31:35.520Z,980.18
2019-02-02T05:32:35.528Z,980.22
2019-02-02T05:33:35.537Z,980.29
2019-02-02T05:34:35.530Z,980.23
2019-02-02T05:35:35.475Z,980.21
2019-02-02T05:36:35.473Z,980.25
2019-02-02T05:37:35.450Z,980.21
2019-02-02T05:38:35.446Z,980.20
2019-02-02T05:39:35.478Z,980.14
2019-02-02T05:40:35.454Z,980.10
2019-02-02T05:41:35.411Z,980.13
2019-02-02T05:42:35.404Z,980.06
2019-02-02T05:43:35.404Z,980.12
2019-02-02T05:44:35.392Z,980.16
2019-02-02T05:45:35.403Z,980.19
2019-02-02T05:46:35.353Z,980.20
2019-02-02T05:47:35.353Z,980.19
2019-02-02T05:48:35.332Z,980.20
2019-02-02T05:49:35.328Z,980.27
2019-02-02T05:50:35.333Z,980.24
2019-02-02T05:51:35.347Z,980.27
2019-02-02T05:52:35.340Z,980.30
2019-02-02T05:53:35.283Z,980.33
2019-02-02T05:54:35.272Z,980.37
2019-02-02T05:55:35.268Z,980.33
2019-02-02T05:56:35.291Z,980.40
2019-02-02T05:57:35.248Z,980.52
2019-02-02T05:58:35.235Z,980.49
2019-02-02T05:59:35.225Z,980.50
2019-02-02T06:00:35.210Z,980.47
2019-02-02T06:01:35.215Z,980.56
2019-02-02T06:02:35.221Z,980.50
2019-02-02T06:03:35.173Z,980.46
2019-02-02T06:04:35.167Z,980.48
2019-02-02T06:05:35.194Z,980.44
2019-02-02T06:06:35.144Z,980.39
2019-02-02T06:07:35.158Z,980.46
2019-02-02T06:08:35.127Z,980.39
2019-02-02T06:09:35.115Z,980.38
2019-02-02T06:10:35.099Z,980.35
2019-02-02T06:11:35.094Z,980.34
2019-02-02T06:12:35.109Z,980.28
2019-02-02T06:13:35.101Z,980.28
2019-02-02T06:14:35.075Z,980.31
2019-02-02T06:15:35.051Z,980.31
2019-02-02T06:16:35.033Z,980.25
2019-02-02T06:17:35.029Z,980.29
2019-02-02T06:18:35.045Z,980.25
2019-02-02T06:19:35.004Z,980.24
2019-02-02T06:20:34.995Z,980.20
2019-02-02T06:21:34.981Z,980.18
2019-02-02T06:22:35.006Z,980.24
2019-02-02T06:23:34.964Z,980.28
2019-02-02T06:24:34.977Z,980.33
2019-02-02T06:25:34.938Z,980.31
2019-02-02T06:26:34.928Z,980.39
2019-02-02T06:27:34.930Z,980.51
2019-02-02T06:28:34.907Z,980.51
2019-02-02T06:29:34.917Z,980.64
2019-02-02T06:30:34.891Z,980.61
2019-02-02T06:31:34.869Z,980.61
2019-02-02T06:32:34.865Z,980.70
2019-02-02T06:33:34.849Z,980.71
2019-02-02T06:34:34.867Z,980.76
2019-02-02T06:35:34.865Z,980.82
2019-02-02T06:36:34.815Z,980.91
2019-02-02T06:37:34.817Z,980.97
2019-02-02T06:38:34.803Z,981.06
2019-02-02T06:39:34.806Z,981.08
2019-02-02T06:40:34.816Z,981.14
2019-02-02T06:41:34.772Z,981.14
2019-02-02T06:42:34.763Z,981.05
2019-02-02T06:43:34.745Z,981.14
2019-02-02T06:44:34.733Z,981.16
2019-02-02T06:45:34.753Z,981.16
2019-02-02T06:46:43.301Z,981.18
2019-02-02T06:47:35.726Z,981.16
2019-02-02T06:48:34.699Z,981.18
2019-02-02T06:49:34.697Z,981.17
2019-02-02T06:50:34.716Z,981.18
2019-02-02T06:51:34.666Z,981.16
2019-02-02T06:52:34.646Z,981.13
2019-02-02T06:53:34.633Z,981.16
2019-02-02T06:54:34.623Z,981.12
2019-02-02T06:55:34.612Z,981.15
2019-02-02T06:56:34.633Z,981.15
2019-02-02T06:57:34.594Z,981.12
2019-02-02T06:58:34.600Z,981.12
2019-02-02T06:59:34.567Z,981.14
2019-02-02T07:00:34.555Z,981.00
2019-02-02T07:01:34.574Z,980.95
2019-02-02T07:02:34.533Z,980.99
2019-02-02T07:03:34.524Z,980.91
2019-02-02T07:04:34.658Z,980.97
2019-02-02T07:05:34.581Z,980.87
2019-02-02T07:06:34.526Z,980.89
2019-02-02T07:07:34.487Z,980.87
2019-02-02T07:08:34.468Z,980.88
2019-02-02T07:09:34.466Z,981.04
2019-02-02T07:10:34.448Z,980.98
2019-02-02T07:11:34.482Z,980.97
2019-02-02T07:12:34.443Z,980.98
2019-02-02T07:13:36.089Z,981.03
2019-02-02T07:14:34.415Z,981.00
2019-02-02T07:15:34.396Z,981.02
2019-02-02T07:16:34.382Z,981.10
2019-02-02T07:17:34.410Z,981.07
2019-02-02T07:18:34.379Z,981.18
2019-02-02T07:19:34.361Z,981.22
2019-02-02T07:20:34.352Z,981.31
2019-02-02T07:21:34.346Z,981.30
2019-02-02T07:22:34.340Z,981.33
2019-02-02T07:23:34.355Z,981.29
2019-02-02T07:24:34.299Z,981.26
2019-02-02T07:25:34.295Z,981.31
2019-02-02T07:26:34.308Z,981.26
2019-02-02T07:27:34.265Z,981.30
2019-02-02T07:28:34.263Z,981.28
2019-02-02T07:29:34.247Z,981.30
2019-02-02T07:30:34.242Z,981.29
2019-02-02T07:31:34.259Z,981.30
2019-02-02T07:32:34.980Z,981.27
2019-02-02T07:33:34.205Z,981.22
2019-02-02T07:34:34.194Z,981.25
2019-02-02T07:35:34.192Z,981.26
2019-02-02T07:36:34.199Z,981.26
2019-02-02T07:37:34.159Z,981.33
2019-02-02T07:38:34.239Z,981.38
2019-02-02T07:39:34.133Z,981.37
2019-02-02T07:40:34.127Z,981.35
2019-02-02T07:41:34.150Z,981.25
2019-02-02T07:42:34.100Z,981.23
2019-02-02T07:43:34.092Z,981.19
2019-02-02T07:44:34.106Z,981.18
2019-02-02T07:45:34.069Z,981.26
2019-02-02T07:46:34.093Z,981.33
2019-02-02T07:47:34.087Z,981.37
2019-02-02T07:48:34.038Z,981.38
2019-02-02T07:49:34.028Z,981.29
2019-02-02T07:50:34.019Z,981.28
2019-02-02T07:51:34.027Z,981.21
2019-02-02T07:52:33.993Z,981.29
2019-02-02T07:53:34.008Z,981.37
2019-02-02T07:54:33.975Z,981.47
2019-02-02T07:55:33.969Z,981.51
2019-02-02T07:56:33.953Z,981.59
2019-02-02T07:57:33.945Z,981.59
2019-02-02T07:58:33.960Z,981.59
2019-02-02T07:59:33.923Z,981.56
2019-02-02T08:00:40.805Z,981.65
2019-02-02T08:01:34.895Z,981.66
2019-02-02T08:02:33.957Z,981.62
2019-02-02T08:03:33.875Z,981.69
2019-02-02T08:04:33.867Z,981.71
2019-02-02T08:05:33.865Z,981.70
2019-02-02T08:06:33.845Z,981.75
2019-02-02T08:07:33.834Z,981.76
2019-02-02T08:08:33.847Z,981.77
2019-02-02T08:09:33.807Z,981.78
2019-02-02T08:10:33.795Z,981.76
2019-02-02T08:11:33.828Z,981.80
2019-02-02T08:12:33.783Z,981.86
2019-02-02T08:13:33.829Z,981.91
2019-02-02T08:14:33.755Z,981.96
2019-02-02T08:15:33.740Z,982.04
2019-02-02T08:16:33.730Z,982.07
2019-02-02T08:17:33.770Z,982.07
2019-02-02T08:18:33.718Z,982.07
2019-02-02T08:19:33.698Z,982.18
2019-02-02T08:20:33.697Z,982.21
2019-02-02T08:21:33.687Z,982.29
2019-02-02T08:22:33.672Z,982.22
2019-02-02T08:23:33.700Z,982.27
2019-02-02T08:24:33.643Z,982.22
2019-02-02T08:25:33.635Z,982.28
2019-02-02T08:26:33.633Z,982.27
2019-02-02T08:27:33.613Z,982.30
2019-02-02T08:28:33.624Z,982.26
2019-02-02T08:29:33.630Z,982.28
2019-02-02T08:30:35.835Z,982.35
2019-02-02T08:31:33.586Z,982.31
2019-02-02T08:32:33.556Z,982.35
2019-02-02T08:33:33.548Z,982.41
2019-02-02T08:34:33.581Z,982.34
2019-02-02T08:35:33.551Z,982.38
2019-02-02T08:36:33.515Z,982.36
2019-02-02T08:37:33.533Z,982.36
2019-02-02T08:38:33.544Z,982.42
2019-02-02T08:39:33.514Z,982.38
2019-02-02T08:40:33.476Z,982.42
2019-02-02T08:41:33.466Z,982.43
2019-02-02T08:42:33.452Z,982.41
2019-02-02T08:43:33.477Z,982.47
2019-02-02T08:44:33.440Z,982.49
2019-02-02T08:45:33.423Z,982.46
2019-02-02T08:46:33.405Z,982.43
2019-02-02T08:47:33.405Z,982.47
2019-02-02T08:48:33.430Z,982.43
2019-02-02T08:49:33.380Z,982.45
2019-02-02T08:50:33.369Z,982.54
2019-02-02T08:51:33.351Z,982.38
2019-02-02T08:52:33.392Z,982.41
2019-02-02T08:53:33.439Z,982.42
2019-02-02T08:54:33.330Z,982.40
2019-02-02T08:55:33.428Z,982.40
2019-02-02T08:56:33.313Z,982.47
2019-02-02T08:57:33.340Z,982.46
2019-02-02T08:58:33.312Z,982.42
2019-02-02T08:59:33.265Z,982.44
2019-02-02T09:00:33.278Z,982.53
2019-02-02T09:01:33.244Z,982.52
2019-02-02T09:02:33.235Z,982.46
2019-02-02T09:03:33.252Z,982.43
2019-02-02T09:04:33.250Z,982.35
2019-02-02T09:05:33.222Z,982.37
2019-02-02T09:06:39.213Z,982.36
2019-02-02T09:07:34.179Z,982.41
2019-02-02T09:08:33.162Z,982.44
2019-02-02T09:09:33.206Z,982.41
2019-02-02T09:10:33.151Z,982.47
2019-02-02T09:11:33.129Z,982.40
2019-02-02T09:12:33.126Z,982.33
2019-02-02T09:13:33.110Z,982.39
2019-02-02T09:14:33.132Z,982.43
2019-02-02T09:15:33.127Z,982.44
2019-02-02T09:16:33.102Z,982.44
2019-02-02T09:17:33.064Z,982.46
2019-02-02T09:18:33.068Z,982.44
2019-02-02T09:19:33.084Z,982.48
2019-02-02T09:20:33.039Z,982.45
2019-02-02T09:21:33.021Z,982.42
2019-02-02T09:22:33.019Z,982.46
2019-02-02T09:23:33.002Z,982.45
2019-02-02T09:24:33.048Z,982.49
2019-02-02T09:25:32.976Z,982.44
2019-02-02T09:26:32.969Z,982.42
2019-02-02T09:27:32.959Z,982.40
2019-02-02T09:28:32.942Z,982.43
2019-02-02T09:29:32.969Z,982.49
2019-02-02T09:30:32.929Z,982.52
2019-02-02T09:31:32.915Z,982.49
2019-02-02T09:32:32.900Z,982.50
2019-02-02T09:33:32.939Z,982.47
2019-02-02T09:34:32.887Z,982.47
2019-02-02T09:35:32.913Z,982.48
2019-02-02T09:36:32.855Z,982.45
2019-02-02T09:37:32.847Z,982.43
2019-02-02T09:38:32.838Z,982.50
2019-02-02T09:39:32.851Z,982.50
2019-02-02T09:40:32.813Z,982.42
2019-02-02T09:41:32.833Z,982.46
2019-02-02T09:42:32.786Z,982.55
2019-02-02T09:43:32.777Z,982.62
2019-02-02T09:44:32.764Z,982.60
2019-02-02T09:45:32.753Z,982.60
2019-02-02T09:46:32.751Z,982.55
2019-02-02T09:47:32.765Z,982.55
2019-02-02T09:48:32.723Z,982.59
2019-02-02T09:49:32.709Z,982.58
2019-02-02T09:50:32.700Z,982.66
2019-02-02T09:51:32.716Z,982.64
2019-02-02T09:52:32.699Z,982.65
2019-02-02T09:53:32.691Z,982.67
2019-02-02T09:54:32.659Z,982.73
2019-02-02T09:55:32.649Z,982.76
2019-02-02T09:56:32.635Z,982.75
2019-02-02T09:57:32.634Z,982.75
2019-02-02T09:58:32.660Z,982.79
2019-02-02T09:59:32.601Z,982.86
2019-02-02T10:00:32.601Z,982.85
2019-02-02T10:01:32.594Z,982.84
2019-02-02T10:02:32.607Z,982.81
2019-02-02T10:03:32.556Z,982.89
2019-02-02T10:04:32.546Z,982.84
2019-02-02T10:05:32.534Z,982.79
2019-02-02T10:06:32.535Z,982.87
2019-02-02T10:07:32.515Z,982.81
2019-02-02T10:08:32.540Z,982.85
2019-02-02T10:09:32.489Z,982.80
2019-02-02T10:10:32.487Z,982.79
2019-02-02T10:11:32.464Z,982.78
2019-02-02T10:12:32.468Z,982.81
2019-02-02T10:13:32.447Z,982.79
2019-02-02T10:14:32.472Z,982.78
2019-02-02T10:15:32.426Z,982.76
2019-02-02T10:16:32.416Z,982.75
2019-02-02T10:17:32.406Z,982.69
2019-02-02T10:18:32.394Z,982.69
2019-02-02T10:19:32.379Z,982.67
2019-02-02T10:20:32.427Z,982.66
2019-02-02T10:21:32.361Z,982.60
2019-02-02T10:22:32.355Z,982.63
2019-02-02T10:23:32.333Z,982.59
2019-02-02T10:24:32.337Z,982.62
2019-02-02T10:25:32.349Z,982.63
2019-02-02T10:26:32.299Z,982.60
2019-02-02T10:27:32.304Z,982.66
2019-02-02T10:28:32.282Z,982.61
2019-02-02T10:29:32.317Z,982.63
2019-02-02T10:30:32.294Z,982.63
2019-02-02T10:31:39.168Z,982.68
2019-02-02T10:32:33.242Z,982.63
2019-02-02T10:33:32.223Z,982.63
2019-02-02T10:34:32.272Z,982.70
2019-02-02T10:35:32.233Z,982.70
2019-02-02T10:36:32.199Z,982.72
2019-02-02T10:37:32.199Z,982.71
2019-02-02T10:38:32.201Z,982.70
2019-02-02T10:39:32.168Z,982.63
2019-02-02T10:40:32.144Z,982.61
2019-02-02T10:41:32.166Z,982.60
2019-02-02T10:42:32.155Z,982.67
2019-02-02T10:43:32.125Z,982.65
2019-02-02T10:44:32.102Z,982.66
2019-02-02T10:45:32.110Z,982.75
2019-02-02T10:46:32.118Z,982.72
2019-02-02T10:47:32.077Z,982.69
2019-02-02T10:48:32.067Z,982.76
2019-02-02T10:49:32.049Z,982.71
2019-02-02T10:50:32.036Z,982.73
2019-02-02T10:51:32.079Z,982.68
2019-02-02T10:52:32.021Z,982.70
2019-02-02T10:53:32.881Z,982.71
2019-02-02T10:54:31.999Z,982.74
2019-02-02T10:55:31.983Z,982.69
2019-02-02T10:56:32.019Z,982.70
2019-02-02T10:57:31.977Z,982.71
2019-02-02T10:58:31.954Z,982.72
2019-02-02T10:59:31.964Z,982.75
2019-02-02T11:00:31.947Z,982.79
2019-02-02T11:01:31.952Z,982.85
2019-02-02T11:02:31.909Z,982.87
2019-02-02T11:03:31.917Z,982.87
2019-02-02T11:04:31.896Z,982.91
2019-02-02T11:05:31.885Z,982.92
2019-02-02T11:06:31.899Z,982.99
2019-02-02T11:07:31.890Z,983.00
2019-02-02T11:08:31.880Z,983.00
2019-02-02T11:09:31.833Z,983.11
2019-02-02T11:10:31.857Z,983.14
2019-02-02T11:11:31.812Z,983.11
2019-02-02T11:12:32.002Z,983.14
2019-02-02T11:13:31.792Z,983.10
2019-02-02T11:14:31.785Z,983.13
2019-02-02T11:15:31.851Z,983.20
2019-02-02T11:16:31.822Z,983.17
2019-02-02T11:17:31.860Z,983.24
2019-02-02T11:18:31.919Z,983.23
2019-02-02T11:19:31.773Z,983.18
2019-02-02T11:20:31.774Z,983.15
2019-02-02T11:21:31.719Z,983.13
2019-02-02T11:22:31.799Z,983.10
2019-02-02T11:23:32.022Z,983.12
2019-02-02T11:24:31.668Z,983.19
2019-02-02T11:25:31.819Z,983.18
2019-02-02T11:26:31.690Z,983.19
2019-02-02T11:27:31.644Z,983.21
2019-02-02T11:28:31.743Z,983.18
2019-02-02T11:29:31.670Z,983.19
2019-02-02T11:30:31.662Z,983.19
2019-02-02T11:31:31.587Z,983.24
2019-02-02T11:32:31.583Z,983.20
2019-02-02T11:33:31.561Z,983.16
2019-02-02T11:34:31.613Z,983.17
2019-02-02T11:35:31.549Z,983.19
2019-02-02T11:36:31.573Z,983.19
2019-02-02T11:37:31.521Z,983.18
2019-02-02T11:38:31.513Z,983.25
2019-02-02T11:39:31.501Z,983.21
2019-02-02T11:40:31.490Z,983.21
2019-02-02T11:41:31.502Z,983.24
2019-02-02T11:42:31.491Z,983.16
2019-02-02T11:43:31.454Z,983.20
2019-02-02T11:44:31.483Z,983.21
2019-02-02T11:45:31.460Z,983.20
2019-02-02T11:46:31.426Z,983.25
2019-02-02T11:47:31.467Z,983.26
2019-02-02T11:48:31.402Z,983.22
2019-02-02T11:49:31.387Z,983.36
2019-02-02T11:50:31.416Z,983.38
2019-02-02T11:51:31.377Z,983.47
2019-02-02T11:52:31.361Z,983.57
2019-02-02T11:53:31.345Z,983.54
2019-02-02T11:54:31.334Z,983.50
2019-02-02T11:55:31.360Z,983.50
2019-02-02T11:56:31.325Z,983.48
2019-02-02T11:57:31.301Z,983.55
2019-02-02T11:58:31.293Z,983.50
2019-02-02T11:59:31.324Z,983.54
2019-02-02T12:00:31.265Z,983.59
2019-02-02T12:01:31.279Z,983.61
2019-02-02T12:02:31.246Z,983.62
2019-02-02T12:03:31.235Z,983.73
2019-02-02T12:04:31.254Z,983.77
2019-02-02T12:05:31.215Z,983.79
2019-02-02T12:06:31.241Z,983.73
2019-02-02T12:07:31.326Z,983.71
2019-02-02T12:08:31.182Z,983.69
2019-02-02T12:09:31.175Z,983.73
2019-02-02T12:10:31.155Z,983.76
2019-02-02T12:11:31.183Z,983.70
2019-02-02T12:12:31.167Z,983.72
2019-02-02T12:13:31.131Z,983.74
2019-02-02T12:14:31.125Z,983.71
2019-02-02T12:15:31.137Z,983.77
2019-02-02T12:16:31.086Z,983.85
2019-02-02T12:17:31.119Z,983.83
2019-02-02T12:18:31.073Z,983.81
2019-02-02T12:19:31.057Z,983.75
2019-02-02T12:20:33.183Z,983.74
2019-02-02T12:21:31.036Z,983.66
2019-02-02T12:22:31.026Z,983.69
2019-02-02T12:23:31.056Z,983.70
2019-02-02T12:24:31.015Z,983.69
2019-02-02T12:25:30.991Z,983.67
2019-02-02T12:26:30.981Z,983.62
2019-02-02T12:27:30.991Z,983.60
2019-02-02T12:28:30.998Z,983.65